createdAt,value
2018-10-17T00:00:35.190Z,12.76
2018-10-17T00:01:35.170Z,12.80
2018-10-17T00:02:35.162Z,12.68
2018-10-17T00:03:35.175Z,12.73
2018-10-17T00:04:35.114Z,12.70
2018-10-17T00:05:35.190Z,12.61
2018-10-17T00:06:35.096Z,12.57
2018-10-17T00:07:35.089Z,12.60
2018-10-17T00:08:35.070Z,12.68
2018-10-17T00:09:35.092Z,12.61
2018-10-17T00:10:35.082Z,12.68
2018-10-17T00:11:35.037Z,12.75
2018-10-17T00:12:35.029Z,12.79
2018-10-17T00:13:35.019Z,12.79
2018-10-17T00:14:35.006Z,12.86
2018-10-17T00:15:35.056Z,12.80
2018-10-17T00:16:35.014Z,12.98
2018-10-17T00:17:34.973Z,13.00
2018-10-17T00:18:34.962Z,12.94
2018-10-17T00:19:34.955Z,12.85
2018-10-17T00:20:34.987Z,12.90
2018-10-17T00:21:34.939Z,12.87
2018-10-17T00:22:34.918Z,12.87
2018-10-17T00:23:35.237Z,12.80
2018-10-17T00:24:34.957Z,12.80
2018-10-17T00:25:34.933Z,12.78
2018-10-17T00:26:34.951Z,12.80
2018-10-17T00:27:34.885Z,12.70
2018-10-17T00:28:35.185Z,12.83
2018-10-17T00:29:34.852Z,12.73
2018-10-17T00:30:34.860Z,12.75
2018-10-17T00:31:34.819Z,12.76
2018-10-17T00:32:34.959Z,12.75
2018-10-17T00:33:34.800Z,12.79
2018-10-17T00:34:34.789Z,12.76
2018-10-17T00:35:34.820Z,12.78
2018-10-17T00:36:34.769Z,12.73
2018-10-17T00:37:34.781Z,12.79
2018-10-17T00:38:34.748Z,12.82
2018-10-17T00:39:34.741Z,12.76
2018-10-17T00:40:34.917Z,12.82
2018-10-17T00:41:34.722Z,12.78
2018-10-17T00:42:34.710Z,12.85
2018-10-17T00:43:34.694Z,12.85
2018-10-17T00:44:34.683Z,12.86
2018-10-17T00:45:34.746Z,12.87
2018-10-17T00:46:34.665Z,12.97
2018-10-17T00:47:34.649Z,13.04
2018-10-17T00:48:34.678Z,13.01
2018-10-17T00:49:34.628Z,13.08
2018-10-17T00:50:34.650Z,13.13
2018-10-17T00:51:34.643Z,13.20
2018-10-17T00:52:34.594Z,13.12
2018-10-17T00:53:34.586Z,13.18
2018-10-17T00:54:34.574Z,13.20
2018-10-17T00:55:34.592Z,13.16
2018-10-17T00:56:34.557Z,13.19
2018-10-17T00:57:34.574Z,13.16
2018-10-17T00:58:34.532Z,13.25
2018-10-17T00:59:34.524Z,13.16
2018-10-17T01:00:34.539Z,13.19
2018-10-17T01:01:34.502Z,13.20
2018-10-17T01:02:34.489Z,13.20
2018-10-17T01:03:34.503Z,13.20
2018-10-17T01:04:34.472Z,13.27
2018-10-17T01:05:34.521Z,13.16
2018-10-17T01:06:34.443Z,13.37
2018-10-17T01:07:34.435Z,13.37
2018-10-17T01:08:34.420Z,13.27
2018-10-17T01:09:34.410Z,13.37
2018-10-17T01:10:34.431Z,13.37
2018-10-17T01:11:34.407Z,13.47
2018-10-17T01:12:34.393Z,13.50
2018-10-17T01:13:34.484Z,13.53
2018-10-17T01:14:34.387Z,13.56
2018-10-17T01:15:34.373Z,13.52
2018-10-17T01:16:34.363Z,13.46
2018-10-17T01:17:34.342Z,13.54
2018-10-17T01:18:34.365Z,13.50
2018-10-17T01:19:34.304Z,13.57
2018-10-17T01:20:34.319Z,13.57
2018-10-17T01:21:34.291Z,13.59
2018-10-17T01:22:34.301Z,13.63
2018-10-17T01:23:34.268Z,13.71
2018-10-17T01:24:34.253Z,13.85
2018-10-17T01:25:34.268Z,13.85
2018-10-17T01:26:34.224Z,13.89
2018-10-17T01:27:34.232Z,13.85
2018-10-17T01:28:34.204Z,13.79
2018-10-17T01:29:34.194Z,13.81
2018-10-17T01:30:34.216Z,13.81
2018-10-17T01:31:34.174Z,13.78
2018-10-17T01:32:34.161Z,13.87
2018-10-17T01:33:34.157Z,13.83
2018-10-17T01:34:34.178Z,13.85
2018-10-17T01:35:34.156Z,13.92
2018-10-17T01:36:34.120Z,13.95
2018-10-17T01:37:34.109Z,14.10
2018-10-17T01:38:34.096Z,14.11
2018-10-17T01:39:34.088Z,14.17
2018-10-17T01:40:35.679Z,14.25
2018-10-17T01:41:34.080Z,14.26
2018-10-17T01:42:34.053Z,14.22
2018-10-17T01:43:34.043Z,14.26
2018-10-17T01:44:34.029Z,14.28
2018-10-17T01:45:34.047Z,14.29
2018-10-17T01:46:34.037Z,14.28
2018-10-17T01:47:34.004Z,14.28
2018-10-17T01:48:33.992Z,14.17
2018-10-17T01:49:33.978Z,14.11
2018-10-17T01:50:33.994Z,14.05
2018-10-17T01:51:33.961Z,14.08
2018-10-17T01:52:33.984Z,14.04
2018-10-17T01:53:33.953Z,14.03
2018-10-17T01:54:34.042Z,14.04
2018-10-17T01:55:33.966Z,14.00
2018-10-17T01:56:33.909Z,13.95
2018-10-17T01:57:33.909Z,13.99
2018-10-17T01:58:33.903Z,13.96
2018-10-17T01:59:33.870Z,13.99
2018-10-17T02:00:33.890Z,13.97
2018-10-17T02:01:33.871Z,14.11
2018-10-17T02:02:33.853Z,14.10
2018-10-17T02:03:33.837Z,14.04
2018-10-17T02:04:33.850Z,14.10
2018-10-17T02:05:33.833Z,14.07
2018-10-17T02:06:33.800Z,14.08
2018-10-17T02:07:33.784Z,14.04
2018-10-17T02:08:33.776Z,14.05
2018-10-17T02:09:33.790Z,14.07
2018-10-17T02:10:33.785Z,14.05
2018-10-17T02:11:33.745Z,14.05
2018-10-17T02:12:33.731Z,14.03
2018-10-17T02:13:33.731Z,14.08
2018-10-17T02:14:33.717Z,14.08
2018-10-17T02:15:33.754Z,14.08
2018-10-17T02:16:33.695Z,14.08
2018-10-17T02:17:33.678Z,14.08
2018-10-17T02:18:33.665Z,14.08
2018-10-17T02:19:33.656Z,14.14
2018-10-17T02:20:33.676Z,14.20
2018-10-17T02:21:33.663Z,14.25
2018-10-17T02:22:33.629Z,14.15
2018-10-17T02:23:33.613Z,14.25
2018-10-17T02:24:33.613Z,14.23
2018-10-17T02:25:33.624Z,14.25
2018-10-17T02:26:33.591Z,14.32
2018-10-17T02:27:33.598Z,14.40
2018-10-17T02:28:33.573Z,14.35
2018-10-17T02:29:33.553Z,14.29
2018-10-17T02:30:33.572Z,14.33
2018-10-17T02:31:33.529Z,14.40
2018-10-17T02:32:33.516Z,14.32
2018-10-17T02:33:33.535Z,14.28
2018-10-17T02:34:33.561Z,14.28
2018-10-17T02:35:33.514Z,14.20
2018-10-17T02:36:33.474Z,14.22
2018-10-17T02:37:33.469Z,14.26
2018-10-17T02:38:33.456Z,14.17
2018-10-17T02:39:33.472Z,14.28
2018-10-17T02:40:33.484Z,14.14
2018-10-17T02:41:33.456Z,14.20
2018-10-17T02:42:33.411Z,14.03
2018-10-17T02:43:33.398Z,14.10
2018-10-17T02:44:33.387Z,14.11
2018-10-17T02:45:33.408Z,14.03
2018-10-17T02:46:33.372Z,13.92
2018-10-17T02:47:33.377Z,13.96
2018-10-17T02:48:33.353Z,13.99
2018-10-17T02:49:33.336Z,14.00
2018-10-17T02:50:33.356Z,14.11
2018-10-17T02:51:33.320Z,14.10
2018-10-17T02:52:33.303Z,14.07
2018-10-17T02:53:33.292Z,14.07
2018-10-17T02:54:33.290Z,14.07
2018-10-17T02:55:33.563Z,14.05
2018-10-17T02:56:33.320Z,14.04
2018-10-17T02:57:33.249Z,14.00
2018-10-17T02:58:33.251Z,13.92
2018-10-17T02:59:33.280Z,13.92
2018-10-17T03:00:33.248Z,13.75
2018-10-17T03:01:33.520Z,13.75
2018-10-17T03:02:33.201Z,13.74
2018-10-17T03:03:33.184Z,13.78
2018-10-17T03:04:33.183Z,13.87
2018-10-17T03:05:33.205Z,13.86
2018-10-17T03:06:33.190Z,13.93
2018-10-17T03:07:33.148Z,13.85
2018-10-17T03:08:33.141Z,13.92
2018-10-17T03:09:33.186Z,13.89
2018-10-17T03:10:33.172Z,13.97
2018-10-17T03:11:33.102Z,13.97
2018-10-17T03:12:33.115Z,13.96
2018-10-17T03:13:33.087Z,14.04
2018-10-17T03:14:33.075Z,14.07
2018-10-17T03:15:33.122Z,14.10
2018-10-17T03:16:33.051Z,14.08
2018-10-17T03:17:33.045Z,14.07
2018-10-17T03:18:33.033Z,14.17
2018-10-17T03:19:33.020Z,14.15
2018-10-17T03:20:33.035Z,14.18
2018-10-17T03:21:32.993Z,14.17
2018-10-17T03:22:33.223Z,14.14
2018-10-17T03:23:32.987Z,14.07
2018-10-17T03:24:32.993Z,14.11
2018-10-17T03:25:32.987Z,14.07
2018-10-17T03:26:32.977Z,14.11
2018-10-17T03:27:32.929Z,14.03
2018-10-17T03:28:32.920Z,13.99
2018-10-17T03:29:32.925Z,13.87
2018-10-17T03:30:33.105Z,13.83
2018-10-17T03:31:32.939Z,13.72
2018-10-17T03:32:32.877Z,13.77
2018-10-17T03:33:32.892Z,13.63
2018-10-17T03:34:32.855Z,13.65
2018-10-17T03:35:32.882Z,13.56
2018-10-17T03:36:33.177Z,13.60
2018-10-17T03:37:32.847Z,13.52
2018-10-17T03:38:33.139Z,13.44
2018-10-17T03:39:32.805Z,13.37
2018-10-17T03:40:32.834Z,13.35
2018-10-17T03:41:32.791Z,13.35
2018-10-17T03:42:32.840Z,13.28
2018-10-17T03:43:32.765Z,13.31
2018-10-17T03:44:32.758Z,13.42
2018-10-17T03:45:33.501Z,13.42
2018-10-17T03:46:32.731Z,13.41
2018-10-17T03:47:32.732Z,13.56
2018-10-17T03:48:32.721Z,13.67
2018-10-17T03:49:32.805Z,13.59
2018-10-17T03:50:32.809Z,13.70
2018-10-17T03:51:32.710Z,13.70
2018-10-17T03:52:32.676Z,13.72
2018-10-17T03:53:32.658Z,13.70
2018-10-17T03:54:32.645Z,13.72
2018-10-17T03:55:32.765Z,13.68
2018-10-17T03:56:32.652Z,13.70
2018-10-17T03:57:32.672Z,13.70
2018-10-17T03:58:32.595Z,13.75
2018-10-17T03:59:32.775Z,13.86
2018-10-17T04:00:32.607Z,13.79
2018-10-17T04:01:32.565Z,13.86
2018-10-17T04:02:32.564Z,13.93
2018-10-17T04:03:32.560Z,13.92
2018-10-17T04:04:32.539Z,13.87
2018-10-17T04:05:32.668Z,13.92
2018-10-17T04:06:32.531Z,13.87
2018-10-17T04:07:32.530Z,13.85
2018-10-17T04:08:32.495Z,13.90
2018-10-17T04:09:32.522Z,13.86
2018-10-17T04:10:32.559Z,13.77
2018-10-17T04:11:32.458Z,13.81
2018-10-17T04:12:32.461Z,13.77
2018-10-17T04:13:32.542Z,13.83
2018-10-17T04:14:32.447Z,13.86
2018-10-17T04:15:32.479Z,13.87
2018-10-17T04:16:32.424Z,13.96
2018-10-17T04:17:32.402Z,13.95
2018-10-17T04:18:32.395Z,14.03
2018-10-17T04:19:32.431Z,13.97
2018-10-17T04:20:32.401Z,14.00
2018-10-17T04:21:32.357Z,14.03
2018-10-17T04:22:32.399Z,13.99
2018-10-17T04:23:32.343Z,14.03
2018-10-17T04:24:32.335Z,14.11
2018-10-17T04:25:32.353Z,13.97
2018-10-17T04:26:32.310Z,14.05
2018-10-17T04:27:32.312Z,13.96
2018-10-17T04:28:32.307Z,13.99
2018-10-17T04:29:32.358Z,13.96
2018-10-17T04:30:32.301Z,13.87
2018-10-17T04:31:32.271Z,13.90
2018-10-17T04:32:32.249Z,13.85
2018-10-17T04:33:32.236Z,13.92
2018-10-17T04:34:32.222Z,13.92
2018-10-17T04:35:32.250Z,13.99
2018-10-17T04:36:32.211Z,13.96
2018-10-17T04:37:32.188Z,13.96
2018-10-17T04:38:32.256Z,13.92
2018-10-17T04:39:32.242Z,13.87
2018-10-17T04:40:32.180Z,13.89
2018-10-17T04:41:32.157Z,13.87
2018-10-17T04:42:32.207Z,14.00
2018-10-17T04:43:32.152Z,13.92
2018-10-17T04:44:32.114Z,13.99
2018-10-17T04:45:32.260Z,13.97
2018-10-17T04:46:32.123Z,14.00
2018-10-17T04:47:32.128Z,13.99
2018-10-17T04:48:32.087Z,13.97
2018-10-17T04:49:32.088Z,13.95
2018-10-17T04:50:32.075Z,13.96
2018-10-17T04:51:32.065Z,14.03
2018-10-17T04:52:32.039Z,13.96
2018-10-17T04:53:32.027Z,13.89
2018-10-17T04:54:32.011Z,13.86
2018-10-17T04:55:32.097Z,13.90
2018-10-17T04:56:31.994Z,13.89
2018-10-17T04:57:31.982Z,13.87
2018-10-17T04:58:32.023Z,13.79
2018-10-17T04:59:31.974Z,13.79
2018-10-17T05:00:31.984Z,13.92
2018-10-17T05:01:31.937Z,13.77
2018-10-17T05:02:31.928Z,13.77
2018-10-17T05:03:31.911Z,13.74
2018-10-17T05:04:31.924Z,13.78
2018-10-17T05:05:31.914Z,13.68
2018-10-17T05:06:31.874Z,13.63
2018-10-17T05:07:31.869Z,13.63
2018-10-17T05:08:31.955Z,13.65
2018-10-17T05:09:31.864Z,13.62
2018-10-17T05:10:31.869Z,13.63
2018-10-17T05:11:31.832Z,13.62
2018-10-17T05:12:31.822Z,13.65
2018-10-17T05:13:31.813Z,13.65
2018-10-17T05:14:31.789Z,13.60
2018-10-17T05:15:31.821Z,13.59
2018-10-17T05:16:31.804Z,13.60
2018-10-17T05:17:31.775Z,13.62
2018-10-17T05:18:31.752Z,13.60
2018-10-17T05:19:31.751Z,13.74
2018-10-17T05:20:31.793Z,13.75
2018-10-17T05:21:31.711Z,13.75
2018-10-17T05:22:31.698Z,13.74
2018-10-17T05:23:31.696Z,13.72
2018-10-17T05:24:31.737Z,13.70
2018-10-17T05:25:31.719Z,13.62
2018-10-17T05:26:31.659Z,13.57
2018-10-17T05:27:31.668Z,13.57
2018-10-17T05:28:31.761Z,13.65
2018-10-17T05:29:31.685Z,13.67
2018-10-17T05:30:31.653Z,13.63
2018-10-17T05:31:31.620Z,13.65
2018-10-17T05:32:31.600Z,13.57
2018-10-17T05:33:31.763Z,13.60
2018-10-17T05:34:31.577Z,13.60
2018-10-17T05:35:31.601Z,13.50
2018-10-17T05:36:31.560Z,13.53
2018-10-17T05:37:31.612Z,13.53
2018-10-17T05:38:31.537Z,13.49
2018-10-17T05:39:31.542Z,13.50
2018-10-17T05:40:31.542Z,13.52
2018-10-17T05:41:31.619Z,13.52
2018-10-17T05:42:31.502Z,13.46
2018-10-17T05:43:31.475Z,13.56
2018-10-17T05:44:31.556Z,13.54
2018-10-17T05:45:31.485Z,13.57
2018-10-17T05:46:31.445Z,13.54
2018-10-17T05:47:31.456Z,13.62
2018-10-17T05:48:31.456Z,13.63
2018-10-17T05:49:31.425Z,13.63
2018-10-17T05:50:31.537Z,13.74
2018-10-17T05:51:31.415Z,13.74
2018-10-17T05:52:31.413Z,13.75
2018-10-17T05:53:31.398Z,13.85
2018-10-17T05:54:31.366Z,13.86
2018-10-17T05:55:31.414Z,13.90
2018-10-17T05:56:31.349Z,13.90
2018-10-17T05:57:31.362Z,13.87
2018-10-17T05:58:31.324Z,13.85
2018-10-17T05:59:31.323Z,13.87
2018-10-17T06:00:31.332Z,13.87
2018-10-17T06:01:31.346Z,13.87
2018-10-17T06:02:31.678Z,13.83
2018-10-17T06:03:31.296Z,13.83
2018-10-17T06:04:31.267Z,13.85
2018-10-17T06:05:31.340Z,13.93
2018-10-17T06:06:31.236Z,13.86
2018-10-17T06:07:31.249Z,13.89
2018-10-17T06:08:31.224Z,13.90
2018-10-17T06:09:31.208Z,13.96
2018-10-17T06:10:31.254Z,13.97
2018-10-17T06:11:31.201Z,13.96
2018-10-17T06:12:31.167Z,13.96
2018-10-17T06:13:31.166Z,13.99
2018-10-17T06:14:31.189Z,13.99
2018-10-17T06:15:31.207Z,14.05
2018-10-17T06:16:31.129Z,14.07
2018-10-17T06:17:31.255Z,14.03
2018-10-17T06:18:31.128Z,14.08
2018-10-17T06:19:31.093Z,14.07
2018-10-17T06:20:31.123Z,14.08
2018-10-17T06:21:31.071Z,14.08
2018-10-17T06:22:31.061Z,14.10
2018-10-17T06:23:31.098Z,14.15
2018-10-17T06:24:31.063Z,14.14
2018-10-17T06:25:31.070Z,14.18
2018-10-17T06:26:31.030Z,14.20
2018-10-17T06:27:31.014Z,14.29
2018-10-17T06:28:31.006Z,14.23
2018-10-17T06:29:31.002Z,14.12
2018-10-17T06:30:31.037Z,14.15
2018-10-17T06:31:30.970Z,14.12
2018-10-17T06:32:30.969Z,14.15
2018-10-17T06:33:31.055Z,14.14
2018-10-17T06:34:30.940Z,14.15
2018-10-17T06:35:31.027Z,14.23
2018-10-17T06:36:30.996Z,14.23
2018-10-17T06:37:30.904Z,14.18
2018-10-17T06:38:30.902Z,14.15
2018-10-17T06:39:30.879Z,14.26
2018-10-17T06:40:30.897Z,14.22
2018-10-17T06:41:30.974Z,14.26
2018-10-17T06:42:30.859Z,14.25
2018-10-17T06:43:30.940Z,14.17
2018-10-17T06:44:30.834Z,14.18
2018-10-17T06:45:30.853Z,14.23
2018-10-17T06:46:30.878Z,14.23
2018-10-17T06:47:30.805Z,14.26
2018-10-17T06:48:30.782Z,14.32
2018-10-17T06:49:30.833Z,14.29
2018-10-17T06:50:30.816Z,14.37
2018-10-17T06:51:30.752Z,14.33
2018-10-17T06:52:30.742Z,14.33
2018-10-17T06:53:30.759Z,14.41
2018-10-17T06:54:30.856Z,14.40
2018-10-17T06:55:30.740Z,14.45
2018-10-17T06:56:30.698Z,14.45
2018-10-17T06:57:30.689Z,14.45
2018-10-17T06:58:30.676Z,14.37
2018-10-17T06:59:30.693Z,14.47
2018-10-17T07:00:30.710Z,14.50
2018-10-17T07:01:30.664Z,14.50
2018-10-17T07:02:30.899Z,14.53
2018-10-17T07:03:30.655Z,14.54
2018-10-17T07:04:30.620Z,14.62
2018-10-17T07:05:30.654Z,14.60
2018-10-17T07:06:30.602Z,14.58
2018-10-17T07:07:30.615Z,14.73
2018-10-17T07:08:30.645Z,14.72
2018-10-17T07:09:30.581Z,14.62
2018-10-17T07:10:30.597Z,14.81
2018-10-17T07:11:30.551Z,14.82
2018-10-17T07:12:30.554Z,14.78
2018-10-17T07:13:30.516Z,14.84
2018-10-17T07:14:30.591Z,14.94
2018-10-17T07:15:30.600Z,14.88
2018-10-17T07:16:30.485Z,14.91
2018-10-17T07:17:30.495Z,14.88
2018-10-17T07:18:30.461Z,14.96
2018-10-17T07:19:30.451Z,14.89
2018-10-17T07:20:30.472Z,14.96
2018-10-17T07:21:30.428Z,14.94
2018-10-17T07:22:30.430Z,14.97
2018-10-17T07:23:30.469Z,15.06
2018-10-17T07:24:30.408Z,15.00
2018-10-17T07:25:30.420Z,15.03
2018-10-17T07:26:31.139Z,15.09
2018-10-17T07:27:30.368Z,15.19
2018-10-17T07:28:30.358Z,15.25
2018-10-17T07:29:30.467Z,15.15
2018-10-17T07:30:30.373Z,15.21
2018-10-17T07:31:30.342Z,15.21
2018-10-17T07:32:30.323Z,15.35
2018-10-17T07:33:30.302Z,15.33
2018-10-17T07:34:30.298Z,15.36
2018-10-17T07:35:30.430Z,15.42
2018-10-17T07:36:30.272Z,15.40
2018-10-17T07:37:30.276Z,15.40
2018-10-17T07:38:30.265Z,15.49
2018-10-17T07:39:30.238Z,15.61
2018-10-17T07:40:30.256Z,15.59
2018-10-17T07:41:30.218Z,15.68
2018-10-17T07:42:30.213Z,15.70
2018-10-17T07:43:30.195Z,15.75
2018-10-17T07:44:30.208Z,15.80
2018-10-17T07:45:30.354Z,15.86
2018-10-17T07:46:30.161Z,15.84
2018-10-17T07:47:30.172Z,15.91
2018-10-17T07:48:30.209Z,15.90
2018-10-17T07:49:30.134Z,15.98
2018-10-17T07:50:30.147Z,16.04
2018-10-17T07:51:30.133Z,16.15
2018-10-17T07:52:30.115Z,16.13
2018-10-17T07:53:30.187Z,16.24
2018-10-17T07:54:30.080Z,16.29
2018-10-17T07:55:30.095Z,16.42
2018-10-17T07:56:30.058Z,16.32
2018-10-17T07:57:30.083Z,16.46
2018-10-17T07:58:31.034Z,16.47
2018-10-17T07:59:30.102Z,16.49
2018-10-17T08:00:30.175Z,16.58
2018-10-17T08:01:30.005Z,16.61
2018-10-17T08:02:29.992Z,16.72
2018-10-17T08:03:30.012Z,16.83
2018-10-17T08:04:30.019Z,16.83
2018-10-17T08:05:29.990Z,16.90
2018-10-17T08:06:29.993Z,16.90
2018-10-17T08:07:29.937Z,17.06
2018-10-17T08:08:29.926Z,16.97
2018-10-17T08:09:29.921Z,17.11
2018-10-17T08:10:29.944Z,17.06
2018-10-17T08:11:29.903Z,17.19
2018-10-17T08:12:29.966Z,17.19
2018-10-17T08:13:29.876Z,17.24
2018-10-17T08:14:29.868Z,17.20
2018-10-17T08:15:30.023Z,17.24
2018-10-17T08:16:29.852Z,17.29
2018-10-17T08:17:29.839Z,17.31
2018-10-17T08:18:29.833Z,17.31
2018-10-17T08:19:29.807Z,17.33
2018-10-17T08:20:29.848Z,17.38
2018-10-17T08:21:29.927Z,17.30
2018-10-17T08:22:29.792Z,17.44
2018-10-17T08:23:29.764Z,17.45
2018-10-17T08:24:29.751Z,17.41
2018-10-17T08:25:29.797Z,17.42
2018-10-17T08:26:29.733Z,17.41
2018-10-17T08:27:29.798Z,17.46
2018-10-17T08:28:29.710Z,17.46
2018-10-17T08:29:29.727Z,17.48
2018-10-17T08:30:29.736Z,17.46
2018-10-17T08:31:29.691Z,17.49
2018-10-17T08:32:29.697Z,17.56
2018-10-17T08:33:29.655Z,17.45
2018-10-17T08:34:29.643Z,17.49
2018-10-17T08:35:29.835Z,17.57
2018-10-17T08:36:30.073Z,17.52
2018-10-17T08:37:30.200Z,17.56
2018-10-17T08:38:29.623Z,17.54
2018-10-17T08:39:29.595Z,17.65
2018-10-17T08:40:29.611Z,17.59
2018-10-17T08:41:29.567Z,17.60
2018-10-17T08:42:29.556Z,17.70
2018-10-17T08:43:29.544Z,17.78
2018-10-17T08:44:29.555Z,17.79
2018-10-17T08:45:29.997Z,17.74
2018-10-17T08:46:29.514Z,17.80
2018-10-17T08:47:29.509Z,17.78
2018-10-17T08:48:29.496Z,17.83
2018-10-17T08:49:29.481Z,17.82
2018-10-17T08:50:29.503Z,17.83
2018-10-17T08:51:29.495Z,17.92
2018-10-17T08:52:29.464Z,17.94
2018-10-17T08:53:29.436Z,17.92
2018-10-17T08:54:29.435Z,17.95
2018-10-17T08:55:29.448Z,17.98
2018-10-17T08:56:29.408Z,18.01
2018-10-17T08:57:29.395Z,18.07
2018-10-17T08:58:29.392Z,17.92
2018-10-17T08:59:29.378Z,17.97
2018-10-17T09:00:29.460Z,18.00
2018-10-17T09:01:29.367Z,18.00
2018-10-17T09:02:29.418Z,18.01
2018-10-17T09:03:29.341Z,17.94
2018-10-17T09:04:29.320Z,18.00
2018-10-17T09:05:29.373Z,18.00
2018-10-17T09:06:29.313Z,18.04
2018-10-17T09:07:29.332Z,18.04
2018-10-17T09:08:29.279Z,17.97
2018-10-17T09:09:29.279Z,18.08
2018-10-17T09:10:29.307Z,18.04
2018-10-17T09:11:29.328Z,18.05
2018-10-17T09:12:29.233Z,18.13
2018-10-17T09:13:29.251Z,18.05
2018-10-17T09:14:29.219Z,18.10
2018-10-17T09:15:29.369Z,18.16
2018-10-17T09:16:29.291Z,18.18
2018-10-17T09:17:29.183Z,18.22
2018-10-17T09:18:29.186Z,18.23
2018-10-17T09:19:29.228Z,18.20
2018-10-17T09:20:29.425Z,18.20
2018-10-17T09:21:29.464Z,18.26
2018-10-17T09:22:29.285Z,18.31
2018-10-17T09:23:29.118Z,18.31
2018-10-17T09:24:29.145Z,18.28
2018-10-17T09:25:29.129Z,18.35
2018-10-17T09:26:29.145Z,18.43
2018-10-17T09:27:29.082Z,18.41
2018-10-17T09:28:29.070Z,18.52
2018-10-17T09:29:29.052Z,18.55
2018-10-17T09:30:29.362Z,18.55
2018-10-17T09:31:29.033Z,18.55
2018-10-17T09:32:29.030Z,18.66
2018-10-17T09:33:29.012Z,18.68
2018-10-17T09:34:29.019Z,18.71
2018-10-17T09:35:29.031Z,18.71
2018-10-17T09:36:28.989Z,18.77
2018-10-17T09:37:28.969Z,18.83
2018-10-17T09:38:28.956Z,18.75
2018-10-17T09:39:28.954Z,18.84
2018-10-17T09:40:29.139Z,18.80
2018-10-17T09:41:28.939Z,18.80
2018-10-17T09:42:28.950Z,18.89
2018-10-17T09:43:28.972Z,18.93
2018-10-17T09:44:28.903Z,19.02
2018-10-17T09:45:28.915Z,19.14
2018-10-17T09:46:28.879Z,19.19
2018-10-17T09:47:28.877Z,19.22
2018-10-17T09:48:28.852Z,19.19
2018-10-17T09:49:28.845Z,19.26
2018-10-17T09:50:28.862Z,19.21
2018-10-17T09:51:28.865Z,19.24
2018-10-17T09:52:28.837Z,19.33
2018-10-17T09:53:28.948Z,19.41
2018-10-17T09:54:28.793Z,19.41
2018-10-17T09:55:28.802Z,19.49
2018-10-17T09:56:28.795Z,19.51
2018-10-17T09:57:28.755Z,19.55
2018-10-17T09:58:28.762Z,19.55
2018-10-17T09:59:28.765Z,19.49
2018-10-17T10:00:28.753Z,19.47
2018-10-17T10:01:28.723Z,19.37
2018-10-17T10:02:28.821Z,19.54
2018-10-17T10:03:28.691Z,19.56
2018-10-17T10:04:28.685Z,19.55
2018-10-17T10:05:28.698Z,19.69
2018-10-17T10:06:28.663Z,19.70
2018-10-17T10:07:28.675Z,19.73
2018-10-17T10:08:28.687Z,19.82
2018-10-17T10:09:28.630Z,19.81
2018-10-17T10:10:28.647Z,19.94
2018-10-17T10:11:28.618Z,19.95
2018-10-17T10:12:28.600Z,19.92
2018-10-17T10:13:28.583Z,20.06
2018-10-17T10:14:28.589Z,20.04
2018-10-17T10:15:28.860Z,20.11
2018-10-17T10:16:29.153Z,20.13
2018-10-17T10:17:28.586Z,20.28
2018-10-17T10:18:28.560Z,20.36
2018-10-17T10:19:28.529Z,20.36
2018-10-17T10:20:28.536Z,20.39
2018-10-17T10:21:28.546Z,20.55
2018-10-17T10:22:28.502Z,20.65
2018-10-17T10:23:28.576Z,20.66
2018-10-17T10:24:28.485Z,20.65
2018-10-17T10:25:28.485Z,20.75
2018-10-17T10:26:28.450Z,20.82
2018-10-17T10:27:28.469Z,20.87
2018-10-17T10:28:28.497Z,20.88
2018-10-17T10:29:28.421Z,20.92
2018-10-17T10:30:28.560Z,20.96
2018-10-17T10:31:28.396Z,20.97
2018-10-17T10:32:28.381Z,20.90
2018-10-17T10:33:28.375Z,20.92
2018-10-17T10:34:28.359Z,21.02
2018-10-17T10:35:28.390Z,21.06
2018-10-17T10:36:28.385Z,21.06
2018-10-17T10:37:28.331Z,21.09
2018-10-17T10:38:28.324Z,21.02
2018-10-17T10:39:28.311Z,21.06
2018-10-17T10:40:28.395Z,21.07
2018-10-17T10:41:28.287Z,21.11
2018-10-17T10:42:28.293Z,21.15
2018-10-17T10:43:28.289Z,21.20
2018-10-17T10:44:28.257Z,21.22
2018-10-17T10:45:28.364Z,21.25
2018-10-17T10:46:28.243Z,21.12
2018-10-17T10:47:28.229Z,21.27
2018-10-17T10:48:28.268Z,21.20
2018-10-17T10:49:28.202Z,21.24
2018-10-17T10:50:28.223Z,21.29
2018-10-17T10:51:28.219Z,21.24
2018-10-17T10:52:28.176Z,21.24
2018-10-17T10:53:28.180Z,21.24
2018-10-17T10:54:28.168Z,21.27
2018-10-17T10:55:28.172Z,21.29
2018-10-17T10:56:28.128Z,21.24
2018-10-17T10:57:28.120Z,21.22
2018-10-17T10:58:28.350Z,21.29
2018-10-17T10:59:28.362Z,21.32
2018-10-17T11:00:28.122Z,21.39
2018-10-17T11:01:28.113Z,21.42
2018-10-17T11:02:28.081Z,21.45
2018-10-17T11:03:28.067Z,21.57
2018-10-17T11:04:28.109Z,21.79
2018-10-17T11:05:28.280Z,22.08
2018-10-17T11:06:28.032Z,22.60
2018-10-17T11:07:28.024Z,23.12
2018-10-17T11:08:28.043Z,23.59
2018-10-17T11:09:27.997Z,23.99
2018-10-17T11:10:28.015Z,24.16
2018-10-17T11:11:27.971Z,24.42
2018-10-17T11:12:27.960Z,24.51
2018-10-17T11:13:27.948Z,24.68
2018-10-17T11:14:28.140Z,24.77
2018-10-17T11:15:27.960Z,24.96
2018-10-17T11:16:27.915Z,25.21
2018-10-17T11:17:27.917Z,25.38
2018-10-17T11:18:27.894Z,25.66
2018-10-17T11:19:27.903Z,25.93
2018-10-17T11:20:27.988Z,26.19
2018-10-17T11:21:27.864Z,26.44
2018-10-17T11:22:27.851Z,26.65
2018-10-17T11:23:27.842Z,26.92
2018-10-17T11:24:27.831Z,27.11
2018-10-17T11:25:27.899Z,27.25
2018-10-17T11:26:27.825Z,27.30
2018-10-17T11:27:27.808Z,27.26
2018-10-17T11:28:27.805Z,27.54
2018-10-17T11:29:27.808Z,27.64
2018-10-17T11:30:27.867Z,27.89
2018-10-17T11:31:27.757Z,27.90
2018-10-17T11:32:27.791Z,28.00
2018-10-17T11:33:27.775Z,28.08
2018-10-17T11:34:27.722Z,28.08
2018-10-17T11:35:27.739Z,28.17
2018-10-17T11:36:27.702Z,28.29
2018-10-17T11:37:27.776Z,28.38
2018-10-17T11:38:27.680Z,28.52
2018-10-17T11:39:27.703Z,28.41
2018-10-17T11:40:27.744Z,28.64
2018-10-17T11:41:27.696Z,29.13
2018-10-17T11:42:27.643Z,29.23
2018-10-17T11:43:27.632Z,29.02
2018-10-17T11:44:27.617Z,28.94
2018-10-17T11:45:27.656Z,29.13
2018-10-17T11:46:27.592Z,29.29
2018-10-17T11:47:27.595Z,29.24
2018-10-17T11:48:27.592Z,29.60
2018-10-17T11:49:27.566Z,29.71
2018-10-17T11:50:27.607Z,29.87
2018-10-17T11:51:27.563Z,30.10
2018-10-17T11:52:27.531Z,30.28
2018-10-17T11:53:27.525Z,30.32
2018-10-17T11:54:27.536Z,30.23
2018-10-17T11:55:27.571Z,30.03
2018-10-17T11:56:27.490Z,29.69
2018-10-17T11:57:27.568Z,29.54
2018-10-17T11:58:27.467Z,29.51
2018-10-17T11:59:27.499Z,29.26
2018-10-17T12:00:27.708Z,29.07
2018-10-17T12:01:27.453Z,28.96
2018-10-17T12:02:27.427Z,28.75
2018-10-17T12:03:27.441Z,28.56
2018-10-17T12:04:27.670Z,28.59
2018-10-17T12:05:27.907Z,28.69
2018-10-17T12:06:27.605Z,28.76
2018-10-17T12:07:27.373Z,28.74
2018-10-17T12:08:27.366Z,28.94
2018-10-17T12:09:27.354Z,28.79
2018-10-17T12:10:27.442Z,28.64
2018-10-17T12:11:27.424Z,28.64
2018-10-17T12:12:27.422Z,28.67
2018-10-17T12:13:27.332Z,28.76
2018-10-17T12:14:27.301Z,29.08
2018-10-17T12:15:27.323Z,29.13
2018-10-17T12:16:27.308Z,29.39
2018-10-17T12:17:27.266Z,29.32
2018-10-17T12:18:27.262Z,29.32
2018-10-17T12:19:27.253Z,29.35
2018-10-17T12:20:27.270Z,29.23
2018-10-17T12:21:27.274Z,29.02
2018-10-17T12:22:27.215Z,28.81
2018-10-17T12:23:27.209Z,28.63
2018-10-17T12:24:27.334Z,28.32
2018-10-17T12:25:27.215Z,28.10
2018-10-17T12:26:27.176Z,27.92
2018-10-17T12:27:27.162Z,28.01
2018-10-17T12:28:27.251Z,28.08
2018-10-17T12:29:27.164Z,28.10
2018-10-17T12:30:27.170Z,28.11
2018-10-17T12:31:27.151Z,28.05
2018-10-17T12:32:27.194Z,28.08
2018-10-17T12:33:27.108Z,27.85
2018-10-17T12:34:27.671Z,27.86
2018-10-17T12:35:27.125Z,27.82
2018-10-17T12:36:27.071Z,27.87
2018-10-17T12:37:27.058Z,27.77
2018-10-17T12:38:27.051Z,27.78
2018-10-17T12:39:27.108Z,27.96
2018-10-17T12:40:27.193Z,28.17
2018-10-17T12:41:27.028Z,28.38
2018-10-17T12:42:27.026Z,28.52
2018-10-17T12:43:27.001Z,28.54
2018-10-17T12:44:26.988Z,28.25
2018-10-17T12:45:27.300Z,28.01
2018-10-17T12:46:26.972Z,27.64
2018-10-17T12:47:27.235Z,27.48
2018-10-17T12:48:26.969Z,27.36
2018-10-17T12:49:26.979Z,27.12
2018-10-17T12:50:27.155Z,26.83
2018-10-17T12:51:26.959Z,26.81
2018-10-17T12:52:26.937Z,26.78